sensor_id;sensor_type;location;lat;lon;timestamp;P1;durP1;ratioP1;P2;durP2;ratioP2
73142;SDS011;61343;53.694;9.988;2022-11-15T00:01:02;40.37;;;17.97;;
73142;SDS011;61343;53.694;9.988;2022-11-15T00:03:31;38.15;;;18.00;;
73142;SDS011;61343;53.694;9.988;2022-11-15T00:06:00;37.43;;;17.90;;
73142;SDS011;61343;53.694;9.988;2022-11-15T00:08:28;40.22;;;18.40;;
73142;SDS011;61343;53.694;9.988;2022-11-15T00:10:55;42.20;;;18.70;;
73142;SDS011;61343;53.694;9.988;2022-11-15T00:13:22;41.75;;;19.35;;
73142;SDS011;61343;53.694;9.988;2022-11-15T00:15:47;45.65;;;20.05;;
73142;SDS011;61343;53.694;9.988;2022-11-15T00:18:13;40.70;;;18.83;;
73142;SDS011;61343;53.694;9.988;2022-11-15T00:20:40;46.70;;;19.65;;
73142;SDS011;61343;53.694;9.988;2022-11-15T00:23:06;46.90;;;19.77;;
73142;SDS011;61343;53.694;9.988;2022-11-15T00:25:32;40.80;;;19.35;;
73142;SDS011;61343;53.694;9.988;2022-11-15T00:27:58;39.08;;;18.58;;
73142;SDS011;61343;53.694;9.988;2022-11-15T00:30:24;42.20;;;19.23;;
73142;SDS011;61343;53.694;9.988;2022-11-15T00:32:50;43.03;;;19.00;;
73142;SDS011;61343;53.694;9.988;2022-11-15T00:35:15;40.73;;;17.93;;
73142;SDS011;61343;53.694;9.988;2022-11-15T00:37:41;40.33;;;19.02;;
73142;SDS011;61343;53.694;9.988;2022-11-15T00:40:06;41.03;;;18.30;;
73142;SDS011;61343;53.694;9.988;2022-11-15T00:42:32;41.45;;;19.48;;
73142;SDS011;61343;53.694;9.988;2022-11-15T00:44:58;41.53;;;19.60;;
73142;SDS011;61343;53.694;9.988;2022-11-15T00:47:23;42.90;;;19.57;;
73142;SDS011;61343;53.694;9.988;2022-11-15T00:49:48;43.27;;;19.03;;
73142;SDS011;61343;53.694;9.988;2022-11-15T00:52:13;46.23;;;20.00;;
73142;SDS011;61343;53.694;9.988;2022-11-15T00:54:39;37.87;;;18.23;;
73142;SDS011;61343;53.694;9.988;2022-11-15T00:57:04;41.53;;;19.17;;
73142;SDS011;61343;53.694;9.988;2022-11-15T00:59:29;41.90;;;18.97;;
73142;SDS011;61343;53.694;9.988;2022-11-15T01:01:55;41.53;;;19.70;;
73142;SDS011;61343;53.694;9.988;2022-11-15T01:04:20;42.10;;;20.30;;
73142;SDS011;61343;53.694;9.988;2022-11-15T01:06:45;42.57;;;18.83;;
73142;SDS011;61343;53.694;9.988;2022-11-15T01:09:10;48.03;;;22.17;;
73142;SDS011;61343;53.694;9.988;2022-11-15T01:11:36;43.93;;;20.00;;
73142;SDS011;61343;53.694;9.988;2022-11-15T01:14:01;44.50;;;20.07;;
73142;SDS011;61343;53.694;9.988;2022-11-15T01:16:26;46.07;;;19.60;;
73142;SDS011;61343;53.694;9.988;2022-11-15T01:18:52;44.20;;;20.13;;
73142;SDS011;61343;53.694;9.988;2022-11-15T01:21:18;47.63;;;19.90;;
73142;SDS011;61343;53.694;9.988;2022-11-15T01:23:44;42.55;;;20.00;;
73142;SDS011;61343;53.694;9.988;2022-11-15T01:26:11;46.87;;;20.00;;
73142;SDS011;61343;53.694;9.988;2022-11-15T01:28:38;45.28;;;20.42;;
73142;SDS011;61343;53.694;9.988;2022-11-15T01:31:13;43.83;;;20.48;;
73142;SDS011;61343;53.694;9.988;2022-11-15T01:33:40;43.47;;;19.73;;
73142;SDS011;61343;53.694;9.988;2022-11-15T01:36:06;46.77;;;20.57;;
73142;SDS011;61343;53.694;9.988;2022-11-15T01:38:33;47.00;;;20.70;;
73142;SDS011;61343;53.694;9.988;2022-11-15T01:40:58;49.50;;;20.37;;
73142;SDS011;61343;53.694;9.988;2022-11-15T01:43:28;49.88;;;19.88;;
73142;SDS011;61343;53.694;9.988;2022-11-15T01:46:04;44.90;;;18.97;;
73142;SDS011;61343;53.694;9.988;2022-11-15T01:48:48;43.28;;;20.20;;
73142;SDS011;61343;53.694;9.988;2022-11-15T01:51:17;46.58;;;20.65;;
73142;SDS011;61343;53.694;9.988;2022-11-15T01:53:45;44.30;;;20.20;;
73142;SDS011;61343;53.694;9.988;2022-11-15T01:56:16;42.90;;;19.98;;
73142;SDS011;61343;53.694;9.988;2022-11-15T01:58:45;42.33;;;19.03;;
73142;SDS011;61343;53.694;9.988;2022-11-15T02:01:11;46.63;;;20.40;;
73142;SDS011;61343;53.694;9.988;2022-11-15T02:03:41;41.80;;;19.58;;
73142;SDS011;61343;53.694;9.988;2022-11-15T02:06:13;45.97;;;20.27;;
73142;SDS011;61343;53.694;9.988;2022-11-15T02:08:39;45.77;;;19.67;;
73142;SDS011;61343;53.694;9.988;2022-11-15T02:11:07;44.83;;;19.95;;
73142;SDS011;61343;53.694;9.988;2022-11-15T02:13:33;42.40;;;19.57;;
73142;SDS011;61343;53.694;9.988;2022-11-15T02:16:00;44.10;;;19.17;;
73142;SDS011;61343;53.694;9.988;2022-11-15T02:18:35;40.47;;;17.67;;
73142;SDS011;61343;53.694;9.988;2022-11-15T02:23:56;40.90;;;19.08;;
73142;SDS011;61343;53.694;9.988;2022-11-15T02:29:11;42.53;;;19.33;;
73142;SDS011;61343;53.694;9.988;2022-11-15T02:31:51;42.07;;;18.30;;
73142;SDS011;61343;53.694;9.988;2022-11-15T02:37:34;43.47;;;19.33;;
73142;SDS011;61343;53.694;9.988;2022-11-15T02:40:17;41.00;;;18.50;;
73142;SDS011;61343;53.694;9.988;2022-11-15T02:42:54;39.55;;;17.73;;
73142;SDS011;61343;53.694;9.988;2022-11-15T02:45:48;39.63;;;17.60;;
73142;SDS011;61343;53.694;9.988;2022-11-15T02:48:18;41.30;;;18.30;;
73142;SDS011;61343;53.694;9.988;2022-11-15T02:50:46;41.20;;;18.75;;
73142;SDS011;61343;53.694;9.988;2022-11-15T02:53:12;39.13;;;18.80;;
73142;SDS011;61343;53.694;9.988;2022-11-15T02:55:48;40.77;;;17.97;;
73142;SDS011;61343;53.694;9.988;2022-11-15T02:58:24;38.95;;;17.35;;
73142;SDS011;61343;53.694;9.988;2022-11-15T03:06:32;36.50;;;16.50;;
73142;SDS011;61343;53.694;9.988;2022-11-15T03:11:56;36.60;;;17.52;;
73142;SDS011;61343;53.694;9.988;2022-11-15T03:14:33;34.55;;;16.17;;
73142;SDS011;61343;53.694;9.988;2022-11-15T03:17:14;38.00;;;16.65;;
73142;SDS011;61343;53.694;9.988;2022-11-15T03:19:49;35.35;;;17.25;;
73142;SDS011;61343;53.694;9.988;2022-11-15T03:22:18;35.10;;;15.57;;
73142;SDS011;61343;53.694;9.988;2022-11-15T03:24:57;32.70;;;15.73;;
73142;SDS011;61343;53.694;9.988;2022-11-15T03:27:28;34.47;;;16.05;;
73142;SDS011;61343;53.694;9.988;2022-11-15T03:29:59;34.53;;;16.17;;
73142;SDS011;61343;53.694;9.988;2022-11-15T03:32:28;31.90;;;15.50;;
73142;SDS011;61343;53.694;9.988;2022-11-15T03:34:57;31.17;;;15.10;;
73142;SDS011;61343;53.694;9.988;2022-11-15T03:37:31;38.13;;;17.33;;
73142;SDS011;61343;53.694;9.988;2022-11-15T03:40:03;33.17;;;16.08;;
73142;SDS011;61343;53.694;9.988;2022-11-15T03:42:35;34.50;;;16.40;;
73142;SDS011;61343;53.694;9.988;2022-11-15T03:45:16;36.50;;;17.33;;
73142;SDS011;61343;53.694;9.988;2022-11-15T03:48:21;32.28;;;15.95;;
73142;SDS011;61343;53.694;9.988;2022-11-15T03:50:41;37.10;;;17.35;;
73142;SDS011;61343;53.694;9.988;2022-11-15T03:53:08;35.50;;;16.00;;
73142;SDS011;61343;53.694;9.988;2022-11-15T03:55:34;34.77;;;16.27;;
73142;SDS011;61343;53.694;9.988;2022-11-15T03:57:59;31.37;;;14.73;;
73142;SDS011;61343;53.694;9.988;2022-11-15T04:00:26;35.47;;;15.57;;
73142;SDS011;61343;53.694;9.988;2022-11-15T04:02:51;35.30;;;16.83;;
73142;SDS011;61343;53.694;9.988;2022-11-15T04:05:16;34.87;;;16.07;;
73142;SDS011;61343;53.694;9.988;2022-11-15T04:07:42;34.53;;;16.67;;
73142;SDS011;61343;53.694;9.988;2022-11-15T04:10:08;32.27;;;16.10;;
73142;SDS011;61343;53.694;9.988;2022-11-15T04:12:37;35.15;;;16.30;;
73142;SDS011;61343;53.694;9.988;2022-11-15T04:17:41;31.83;;;14.87;;
73142;SDS011;61343;53.694;9.988;2022-11-15T04:23:01;32.90;;;15.75;;
73142;SDS011;61343;53.694;9.988;2022-11-15T04:25:49;30.13;;;14.18;;
73142;SDS011;61343;53.694;9.988;2022-11-15T04:28:15;29.98;;;13.50;;
73142;SDS011;61343;53.694;9.988;2022-11-15T04:30:41;31.47;;;14.63;;
73142;SDS011;61343;53.694;9.988;2022-11-15T04:33:06;30.43;;;14.53;;
73142;SDS011;61343;53.694;9.988;2022-11-15T04:35:31;28.60;;;13.23;;
73142;SDS011;61343;53.694;9.988;2022-11-15T04:37:57;28.07;;;14.27;;
73142;SDS011;61343;53.694;9.988;2022-11-15T04:40:23;25.77;;;13.15;;
73142;SDS011;61343;53.694;9.988;2022-11-15T04:42:48;26.80;;;13.00;;
73142;SDS011;61343;53.694;9.988;2022-11-15T04:45:14;31.63;;;15.27;;
73142;SDS011;61343;53.694;9.988;2022-11-15T04:47:39;30.90;;;14.03;;
73142;SDS011;61343;53.694;9.988;2022-11-15T04:50:05;30.33;;;13.80;;
73142;SDS011;61343;53.694;9.988;2022-11-15T04:52:30;29.43;;;14.57;;
73142;SDS011;61343;53.694;9.988;2022-11-15T04:54:56;26.63;;;12.87;;
73142;SDS011;61343;53.694;9.988;2022-11-15T04:57:21;27.40;;;13.40;;
73142;SDS011;61343;53.694;9.988;2022-11-15T04:59:46;27.07;;;13.57;;
73142;SDS011;61343;53.694;9.988;2022-11-15T05:02:11;27.57;;;13.47;;
73142;SDS011;61343;53.694;9.988;2022-11-15T05:04:37;30.03;;;13.97;;
73142;SDS011;61343;53.694;9.988;2022-11-15T05:07:02;26.20;;;13.43;;
73142;SDS011;61343;53.694;9.988;2022-11-15T05:09:29;27.95;;;13.30;;
73142;SDS011;61343;53.694;9.988;2022-11-15T05:11:54;26.00;;;13.80;;
73142;SDS011;61343;53.694;9.988;2022-11-15T05:14:19;25.87;;;13.20;;
73142;SDS011;61343;53.694;9.988;2022-11-15T05:16:45;29.37;;;13.80;;
73142;SDS011;61343;53.694;9.988;2022-11-15T05:19:10;26.70;;;14.00;;
73142;SDS011;61343;53.694;9.988;2022-11-15T05:21:36;27.92;;;14.57;;
73142;SDS011;61343;53.694;9.988;2022-11-15T05:24:01;25.10;;;13.20;;
73142;SDS011;61343;53.694;9.988;2022-11-15T05:26:27;28.05;;;13.32;;
73142;SDS011;61343;53.694;9.988;2022-11-15T05:28:53;27.27;;;13.53;;
73142;SDS011;61343;53.694;9.988;2022-11-15T05:31:20;29.43;;;14.40;;
73142;SDS011;61343;53.694;9.988;2022-11-15T05:33:45;26.75;;;14.00;;
73142;SDS011;61343;53.694;9.988;2022-11-15T05:36:21;29.87;;;14.23;;
73142;SDS011;61343;53.694;9.988;2022-11-15T05:38:52;30.63;;;14.87;;
73142;SDS011;61343;53.694;9.988;2022-11-15T05:41:19;27.98;;;14.20;;
73142;SDS011;61343;53.694;9.988;2022-11-15T05:43:47;31.70;;;13.80;;
73142;SDS011;61343;53.694;9.988;2022-11-15T05:46:14;27.63;;;13.67;;
73142;SDS011;61343;53.694;9.988;2022-11-15T05:48:41;27.30;;;13.65;;
73142;SDS011;61343;53.694;9.988;2022-11-15T05:51:09;26.52;;;14.07;;
73142;SDS011;61343;53.694;9.988;2022-11-15T05:53:37;30.35;;;14.07;;
73142;SDS011;61343;53.694;9.988;2022-11-15T05:56:03;31.20;;;15.23;;
73142;SDS011;61343;53.694;9.988;2022-11-15T05:58:31;29.45;;;14.52;;
73142;SDS011;61343;53.694;9.988;2022-11-15T06:00:59;31.50;;;15.35;;
73142;SDS011;61343;53.694;9.988;2022-11-15T06:03:25;30.17;;;15.23;;
73142;SDS011;61343;53.694;9.988;2022-11-15T06:05:50;33.07;;;14.67;;
73142;SDS011;61343;53.694;9.988;2022-11-15T06:08:15;27.90;;;14.00;;
73142;SDS011;61343;53.694;9.988;2022-11-15T06:10:41;30.47;;;14.30;;
73142;SDS011;61343;53.694;9.988;2022-11-15T06:13:06;29.17;;;13.23;;
73142;SDS011;61343;53.694;9.988;2022-11-15T06:15:32;28.77;;;13.97;;
73142;SDS011;61343;53.694;9.988;2022-11-15T06:17:58;32.58;;;14.88;;
73142;SDS011;61343;53.694;9.988;2022-11-15T06:20:24;28.90;;;14.37;;
73142;SDS011;61343;53.694;9.988;2022-11-15T06:22:50;30.95;;;14.45;;
73142;SDS011;61343;53.694;9.988;2022-11-15T06:25:16;27.93;;;13.73;;
73142;SDS011;61343;53.694;9.988;2022-11-15T06:27:41;33.40;;;15.10;;
73142;SDS011;61343;53.694;9.988;2022-11-15T06:30:06;29.67;;;14.87;;
73142;SDS011;61343;53.694;9.988;2022-11-15T06:32:32;32.00;;;14.57;;
73142;SDS011;61343;53.694;9.988;2022-11-15T06:34:57;30.60;;;15.43;;
73142;SDS011;61343;53.694;9.988;2022-11-15T06:37:22;27.40;;;14.03;;
73142;SDS011;61343;53.694;9.988;2022-11-15T06:39:48;31.50;;;15.43;;
73142;SDS011;61343;53.694;9.988;2022-11-15T06:42:13;32.77;;;15.33;;
73142;SDS011;61343;53.694;9.988;2022-11-15T06:44:38;31.87;;;15.73;;
73142;SDS011;61343;53.694;9.988;2022-11-15T06:47:03;27.87;;;13.93;;
73142;SDS011;61343;53.694;9.988;2022-11-15T06:49:28;31.13;;;14.87;;
73142;SDS011;61343;53.694;9.988;2022-11-15T06:51:54;32.70;;;14.67;;
73142;SDS011;61343;53.694;9.988;2022-11-15T06:54:19;33.80;;;14.70;;
73142;SDS011;61343;53.694;9.988;2022-11-15T06:56:45;30.13;;;14.65;;
73142;SDS011;61343;53.694;9.988;2022-11-15T06:59:11;33.07;;;15.43;;
73142;SDS011;61343;53.694;9.988;2022-11-15T07:01:36;33.70;;;15.33;;
73142;SDS011;61343;53.694;9.988;2022-11-15T07:04:01;33.10;;;15.27;;
73142;SDS011;61343;53.694;9.988;2022-11-15T07:06:26;33.53;;;15.37;;
73142;SDS011;61343;53.694;9.988;2022-11-15T07:08:52;32.27;;;14.33;;
73142;SDS011;61343;53.694;9.988;2022-11-15T07:11:17;32.27;;;15.07;;
73142;SDS011;61343;53.694;9.988;2022-11-15T07:13:42;31.87;;;15.30;;
73142;SDS011;61343;53.694;9.988;2022-11-15T07:16:08;30.87;;;14.87;;
73142;SDS011;61343;53.694;9.988;2022-11-15T07:18:35;30.50;;;14.15;;
73142;SDS011;61343;53.694;9.988;2022-11-15T07:21:03;34.88;;;15.25;;
73142;SDS011;61343;53.694;9.988;2022-11-15T07:23:30;30.63;;;15.05;;
73142;SDS011;61343;53.694;9.988;2022-11-15T07:25:56;30.97;;;15.70;;
73142;SDS011;61343;53.694;9.988;2022-11-15T07:28:25;29.10;;;14.57;;
73142;SDS011;61343;53.694;9.988;2022-11-15T07:30:51;30.20;;;14.55;;
73142;SDS011;61343;53.694;9.988;2022-11-15T07:33:16;31.23;;;13.73;;
73142;SDS011;61343;53.694;9.988;2022-11-15T07:35:41;28.70;;;13.93;;
73142;SDS011;61343;53.694;9.988;2022-11-15T07:38:08;38.67;;;16.05;;
73142;SDS011;61343;53.694;9.988;2022-11-15T07:40:33;31.17;;;15.60;;
73142;SDS011;61343;53.694;9.988;2022-11-15T07:43:02;29.92;;;15.20;;
73142;SDS011;61343;53.694;9.988;2022-11-15T07:45:32;32.93;;;14.47;;
73142;SDS011;61343;53.694;9.988;2022-11-15T07:48:00;26.42;;;13.52;;
73142;SDS011;61343;53.694;9.988;2022-11-15T07:50:26;29.08;;;14.15;;
73142;SDS011;61343;53.694;9.988;2022-11-15T07:52:57;29.80;;;15.17;;
73142;SDS011;61343;53.694;9.988;2022-11-15T07:55:24;28.55;;;14.32;;
73142;SDS011;61343;53.694;9.988;2022-11-15T07:57:52;31.17;;;14.30;;
73142;SDS011;61343;53.694;9.988;2022-11-15T08:00:17;30.40;;;15.13;;
73142;SDS011;61343;53.694;9.988;2022-11-15T08:02:43;29.30;;;14.35;;
73142;SDS011;61343;53.694;9.988;2022-11-15T08:05:09;30.13;;;15.10;;
73142;SDS011;61343;53.694;9.988;2022-11-15T08:07:34;28.37;;;14.50;;
73142;SDS011;61343;53.694;9.988;2022-11-15T08:09:59;30.10;;;13.70;;
73142;SDS011;61343;53.694;9.988;2022-11-15T08:12:28;26.20;;;13.35;;
73142;SDS011;61343;53.694;9.988;2022-11-15T08:14:54;29.47;;;14.43;;
73142;SDS011;61343;53.694;9.988;2022-11-15T08:17:21;32.78;;;14.32;;
73142;SDS011;61343;53.694;9.988;2022-11-15T08:19:47;32.67;;;15.90;;
73142;SDS011;61343;53.694;9.988;2022-11-15T08:22:12;35.20;;;15.10;;
73142;SDS011;61343;53.694;9.988;2022-11-15T08:24:38;30.38;;;14.80;;
73142;SDS011;61343;53.694;9.988;2022-11-15T08:27:03;30.50;;;14.53;;
73142;SDS011;61343;53.694;9.988;2022-11-15T08:29:28;28.87;;;14.50;;
73142;SDS011;61343;53.694;9.988;2022-11-15T08:31:54;24.73;;;13.33;;
73142;SDS011;61343;53.694;9.988;2022-11-15T08:34:20;29.92;;;13.35;;
73142;SDS011;61343;53.694;9.988;2022-11-15T08:36:46;27.63;;;13.17;;
73142;SDS011;61343;53.694;9.988;2022-11-15T08:39:11;25.73;;;13.40;;
73142;SDS011;61343;53.694;9.988;2022-11-15T08:41:37;31.92;;;13.88;;
73142;SDS011;61343;53.694;9.988;2022-11-15T08:44:03;25.30;;;12.77;;
73142;SDS011;61343;53.694;9.988;2022-11-15T08:46:29;26.95;;;13.68;;
73142;SDS011;61343;53.694;9.988;2022-11-15T08:48:54;26.13;;;13.50;;
73142;SDS011;61343;53.694;9.988;2022-11-15T08:51:19;28.17;;;13.40;;
73142;SDS011;61343;53.694;9.988;2022-11-15T08:53:45;27.20;;;12.93;;
73142;SDS011;61343;53.694;9.988;2022-11-15T08:56:12;26.60;;;14.20;;
73142;SDS011;61343;53.694;9.988;2022-11-15T08:58:38;27.65;;;13.60;;
73142;SDS011;61343;53.694;9.988;2022-11-15T09:01:04;26.10;;;13.00;;
73142;SDS011;61343;53.694;9.988;2022-11-15T09:03:30;27.07;;;14.20;;
73142;SDS011;61343;53.694;9.988;2022-11-15T09:05:56;25.88;;;13.35;;
73142;SDS011;61343;53.694;9.988;2022-11-15T09:08:22;28.03;;;14.43;;
73142;SDS011;61343;53.694;9.988;2022-11-15T09:10:48;27.95;;;14.48;;
73142;SDS011;61343;53.694;9.988;2022-11-15T09:13:13;30.03;;;13.43;;
73142;SDS011;61343;53.694;9.988;2022-11-15T09:15:38;28.30;;;13.87;;
73142;SDS011;61343;53.694;9.988;2022-11-15T09:18:04;27.38;;;13.38;;
73142;SDS011;61343;53.694;9.988;2022-11-15T09:20:29;25.43;;;13.17;;
73142;SDS011;61343;53.694;9.988;2022-11-15T09:22:54;26.63;;;13.53;;
73142;SDS011;61343;53.694;9.988;2022-11-15T09:25:23;27.80;;;14.07;;
73142;SDS011;61343;53.694;9.988;2022-11-15T09:27:48;24.60;;;12.97;;
73142;SDS011;61343;53.694;9.988;2022-11-15T09:30:14;27.13;;;13.13;;
73142;SDS011;61343;53.694;9.988;2022-11-15T09:32:39;27.43;;;13.27;;
73142;SDS011;61343;53.694;9.988;2022-11-15T09:35:04;24.43;;;12.07;;
73142;SDS011;61343;53.694;9.988;2022-11-15T09:37:31;23.63;;;11.97;;
73142;SDS011;61343;53.694;9.988;2022-11-15T09:39:57;26.02;;;13.32;;
73142;SDS011;61343;53.694;9.988;2022-11-15T09:45:17;23.13;;;12.20;;
73142;SDS011;61343;53.694;9.988;2022-11-15T09:47:49;24.08;;;12.00;;
73142;SDS011;61343;53.694;9.988;2022-11-15T09:50:41;27.00;;;13.07;;
73142;SDS011;61343;53.694;9.988;2022-11-15T09:53:12;21.55;;;11.23;;
73142;SDS011;61343;53.694;9.988;2022-11-15T09:55:53;24.60;;;11.80;;
73142;SDS011;61343;53.694;9.988;2022-11-15T09:58:32;24.95;;;12.43;;
73142;SDS011;61343;53.694;9.988;2022-11-15T10:01:41;25.02;;;12.10;;
73142;SDS011;61343;53.694;9.988;2022-11-15T10:04:22;22.10;;;11.53;;
73142;SDS011;61343;53.694;9.988;2022-11-15T10:07:00;24.88;;;12.30;;
73142;SDS011;61343;53.694;9.988;2022-11-15T10:09:31;24.27;;;12.35;;
73142;SDS011;61343;53.694;9.988;2022-11-15T10:12:06;25.52;;;12.45;;
73142;SDS011;61343;53.694;9.988;2022-11-15T10:14:33;25.17;;;12.80;;
73142;SDS011;61343;53.694;9.988;2022-11-15T10:22:45;24.77;;;12.98;;
73142;SDS011;61343;53.694;9.988;2022-11-15T10:27:42;26.15;;;12.98;;
73142;SDS011;61343;53.694;9.988;2022-11-15T10:30:11;26.07;;;12.90;;
73142;SDS011;61343;53.694;9.988;2022-11-15T10:32:39;20.58;;;11.65;;
73142;SDS011;61343;53.694;9.988;2022-11-15T10:35:27;24.77;;;11.80;;
73142;SDS011;61343;53.694;9.988;2022-11-15T10:38:09;24.75;;;12.88;;
73142;SDS011;61343;53.694;9.988;2022-11-15T10:40:36;22.80;;;11.48;;
73142;SDS011;61343;53.694;9.988;2022-11-15T10:45:34;21.58;;;11.52;;
73142;SDS011;61343;53.694;9.988;2022-11-15T10:50:39;23.85;;;12.40;;
73142;SDS011;61343;53.694;9.988;2022-11-15T10:53:17;23.27;;;10.95;;
73142;SDS011;61343;53.694;9.988;2022-11-15T10:55:49;20.17;;;11.23;;
73142;SDS011;61343;53.694;9.988;2022-11-15T10:58:21;24.48;;;11.82;;
73142;SDS011;61343;53.694;9.988;2022-11-15T11:00:48;23.02;;;11.23;;
73142;SDS011;61343;53.694;9.988;2022-11-15T11:03:26;21.23;;;10.97;;
73142;SDS011;61343;53.694;9.988;2022-11-15T11:06:02;22.67;;;11.55;;
73142;SDS011;61343;53.694;9.988;2022-11-15T11:08:40;19.65;;;11.32;;
73142;SDS011;61343;53.694;9.988;2022-11-15T11:11:17;21.30;;;11.13;;
73142;SDS011;61343;53.694;9.988;2022-11-15T11:13:42;21.80;;;11.17;;
73142;SDS011;61343;53.694;9.988;2022-11-15T11:16:17;22.20;;;11.27;;
73142;SDS011;61343;53.694;9.988;2022-11-15T11:24:03;18.15;;;10.30;;
73142;SDS011;61343;53.694;9.988;2022-11-15T11:29:39;19.95;;;10.95;;
73142;SDS011;61343;53.694;9.988;2022-11-15T11:32:28;20.63;;;10.90;;
73142;SDS011;61343;53.694;9.988;2022-11-15T11:35:22;24.17;;;12.90;;
73142;SDS011;61343;53.694;9.988;2022-11-15T11:43:06;22.77;;;12.18;;
73142;SDS011;61343;53.694;9.988;2022-11-15T11:45:43;20.60;;;10.57;;
73142;SDS011;61343;53.694;9.988;2022-11-15T11:51:18;20.52;;;10.45;;
73142;SDS011;61343;53.694;9.988;2022-11-15T11:53:47;18.70;;;11.18;;
73142;SDS011;61343;53.694;9.988;2022-11-15T11:56:28;18.48;;;9.73;;
73142;SDS011;61343;53.694;9.988;2022-11-15T12:02:09;18.97;;;10.27;;
73142;SDS011;61343;53.694;9.988;2022-11-15T12:04:50;19.73;;;10.23;;
73142;SDS011;61343;53.694;9.988;2022-11-15T12:07:24;17.73;;;9.93;;
73142;SDS011;61343;53.694;9.988;2022-11-15T12:13:06;19.08;;;10.20;;
73142;SDS011;61343;53.694;9.988;2022-11-15T12:15:38;19.70;;;10.83;;
73142;SDS011;61343;53.694;9.988;2022-11-15T12:18:11;20.27;;;10.80;;
73142;SDS011;61343;53.694;9.988;2022-11-15T12:20:40;19.00;;;10.30;;
73142;SDS011;61343;53.694;9.988;2022-11-15T12:23:19;17.08;;;9.75;;
73142;SDS011;61343;53.694;9.988;2022-11-15T12:25:55;17.67;;;9.75;;
73142;SDS011;61343;53.694;9.988;2022-11-15T12:28:43;15.83;;;8.90;;
73142;SDS011;61343;53.694;9.988;2022-11-15T12:31:18;18.65;;;9.82;;
73142;SDS011;61343;53.694;9.988;2022-11-15T12:33:49;17.02;;;8.60;;
73142;SDS011;61343;53.694;9.988;2022-11-15T12:41:19;17.27;;;9.40;;
73142;SDS011;61343;53.694;9.988;2022-11-15T12:43:46;18.00;;;9.95;;
73142;SDS011;61343;53.694;9.988;2022-11-15T12:49:03;17.08;;;9.27;;
73142;SDS011;61343;53.694;9.988;2022-11-15T13:02:30;17.45;;;8.88;;
73142;SDS011;61343;53.694;9.988;2022-11-15T13:05:26;18.23;;;8.65;;
73142;SDS011;61343;53.694;9.988;2022-11-15T13:17:37;14.77;;;8.00;;
73142;SDS011;61343;53.694;9.988;2022-11-15T13:22:38;13.80;;;8.00;;
73142;SDS011;61343;53.694;9.988;2022-11-15T13:27:49;15.88;;;8.75;;
73142;SDS011;61343;53.694;9.988;2022-11-15T13:30:19;14.50;;;8.33;;
73142;SDS011;61343;53.694;9.988;2022-11-15T13:32:47;15.88;;;9.02;;
73142;SDS011;61343;53.694;9.988;2022-11-15T13:35:26;16.38;;;8.25;;
73142;SDS011;61343;53.694;9.988;2022-11-15T13:37:54;13.77;;;8.13;;
73142;SDS011;61343;53.694;9.988;2022-11-15T13:42:55;13.50;;;7.73;;
73142;SDS011;61343;53.694;9.988;2022-11-15T13:45:21;15.48;;;9.05;;
73142;SDS011;61343;53.694;9.988;2022-11-15T13:47:51;13.75;;;8.18;;
73142;SDS011;61343;53.694;9.988;2022-11-15T13:50:17;21.70;;;8.80;;
73142;SDS011;61343;53.694;9.988;2022-11-15T13:52:46;18.35;;;8.52;;
73142;SDS011;61343;53.694;9.988;2022-11-15T13:55:14;14.93;;;8.10;;
73142;SDS011;61343;53.694;9.988;2022-11-15T13:57:57;14.75;;;8.32;;
73142;SDS011;61343;53.694;9.988;2022-11-15T14:03:07;14.33;;;8.17;;
73142;SDS011;61343;53.694;9.988;2022-11-15T14:05:40;15.25;;;8.43;;
73142;SDS011;61343;53.694;9.988;2022-11-15T14:10:43;14.27;;;7.95;;
73142;SDS011;61343;53.694;9.988;2022-11-15T14:13:30;14.90;;;8.20;;
73142;SDS011;61343;53.694;9.988;2022-11-15T14:16:12;18.13;;;9.10;;
73142;SDS011;61343;53.694;9.988;2022-11-15T14:18:57;14.30;;;7.63;;
73142;SDS011;61343;53.694;9.988;2022-11-15T14:21:22;14.87;;;8.17;;
73142;SDS011;61343;53.694;9.988;2022-11-15T14:23:47;14.57;;;8.03;;
73142;SDS011;61343;53.694;9.988;2022-11-15T14:26:30;15.80;;;7.70;;
73142;SDS011;61343;53.694;9.988;2022-11-15T14:28:57;14.23;;;8.00;;
73142;SDS011;61343;53.694;9.988;2022-11-15T14:31:22;15.37;;;8.17;;
73142;SDS011;61343;53.694;9.988;2022-11-15T14:33:47;14.87;;;8.20;;
73142;SDS011;61343;53.694;9.988;2022-11-15T14:36:17;13.13;;;7.43;;
73142;SDS011;61343;53.694;9.988;2022-11-15T14:38:45;16.63;;;8.50;;
73142;SDS011;61343;53.694;9.988;2022-11-15T14:41:34;14.75;;;8.30;;
73142;SDS011;61343;53.694;9.988;2022-11-15T14:44:02;16.65;;;9.32;;
73142;SDS011;61343;53.694;9.988;2022-11-15T14:46:28;17.98;;;9.50;;
73142;SDS011;61343;53.694;9.988;2022-11-15T14:48:54;16.17;;;9.17;;
73142;SDS011;61343;53.694;9.988;2022-11-15T14:51:19;16.70;;;8.97;;
73142;SDS011;61343;53.694;9.988;2022-11-15T14:53:45;14.80;;;8.27;;
73142;SDS011;61343;53.694;9.988;2022-11-15T14:56:11;16.67;;;9.00;;
73142;SDS011;61343;53.694;9.988;2022-11-15T14:58:37;15.40;;;8.57;;
73142;SDS011;61343;53.694;9.988;2022-11-15T15:01:08;19.07;;;10.17;;
73142;SDS011;61343;53.694;9.988;2022-11-15T15:03:37;19.15;;;9.80;;
73142;SDS011;61343;53.694;9.988;2022-11-15T15:06:02;14.93;;;8.07;;
73142;SDS011;61343;53.694;9.988;2022-11-15T15:08:28;14.83;;;8.13;;
73142;SDS011;61343;53.694;9.988;2022-11-15T15:10:53;15.20;;;8.93;;
73142;SDS011;61343;53.694;9.988;2022-11-15T15:13:20;14.77;;;7.90;;
73142;SDS011;61343;53.694;9.988;2022-11-15T15:15:47;15.13;;;7.93;;
73142;SDS011;61343;53.694;9.988;2022-11-15T15:18:13;16.30;;;8.95;;
73142;SDS011;61343;53.694;9.988;2022-11-15T15:20:39;16.53;;;8.67;;
73142;SDS011;61343;53.694;9.988;2022-11-15T15:23:07;15.98;;;8.98;;
73142;SDS011;61343;53.694;9.988;2022-11-15T15:25:39;15.95;;;7.88;;
73142;SDS011;61343;53.694;9.988;2022-11-15T15:28:05;16.23;;;8.43;;
73142;SDS011;61343;53.694;9.988;2022-11-15T15:30:30;17.17;;;8.27;;
73142;SDS011;61343;53.694;9.988;2022-11-15T15:32:56;15.95;;;8.35;;
73142;SDS011;61343;53.694;9.988;2022-11-15T15:35:21;16.07;;;8.90;;
73142;SDS011;61343;53.694;9.988;2022-11-15T15:37:47;17.63;;;8.82;;
73142;SDS011;61343;53.694;9.988;2022-11-15T15:42:45;15.65;;;8.00;;
73142;SDS011;61343;53.694;9.988;2022-11-15T15:45:11;15.23;;;8.60;;
73142;SDS011;61343;53.694;9.988;2022-11-15T15:47:37;15.77;;;8.52;;
73142;SDS011;61343;53.694;9.988;2022-11-15T15:50:03;17.20;;;8.80;;
73142;SDS011;61343;53.694;9.988;2022-11-15T15:52:33;16.10;;;9.25;;
73142;SDS011;61343;53.694;9.988;2022-11-15T15:54:58;16.87;;;9.40;;
73142;SDS011;61343;53.694;9.988;2022-11-15T15:57:23;14.83;;;7.93;;
73142;SDS011;61343;53.694;9.988;2022-11-15T15:59:49;19.30;;;9.07;;
73142;SDS011;61343;53.694;9.988;2022-11-15T16:02:14;15.87;;;8.30;;
73142;SDS011;61343;53.694;9.988;2022-11-15T16:04:39;17.05;;;9.25;;
73142;SDS011;61343;53.694;9.988;2022-11-15T16:07:05;16.00;;;8.50;;
73142;SDS011;61343;53.694;9.988;2022-11-15T16:09:30;15.63;;;8.80;;
73142;SDS011;61343;53.694;9.988;2022-11-15T16:12:14;15.10;;;9.18;;
73142;SDS011;61343;53.694;9.988;2022-11-15T16:14:41;14.35;;;8.52;;
73142;SDS011;61343;53.694;9.988;2022-11-15T16:17:08;17.20;;;8.63;;
73142;SDS011;61343;53.694;9.988;2022-11-15T16:19:41;16.25;;;8.63;;